Time;durP1;ratioP1;P1;durP2;ratioP2;P2;SDS_P1;SDS_P2;PMS_P1;PMS_P2;Temp;Humidity;BMP_temperature;BMP_pressure;BME280_temperature;BME280_humidity;BME280_pressure;Samples;Min_cycle;Max_cycle;Signal;HPM_P1;HPM_P2
2023/03/06 00:00:42;;;;;;;3.03;1.60;;;6.50;99.90;;;;;;5074349;28;20021;-77
2023/03/06 00:03:08;;;;;;;5.93;2.15;;;6.50;99.90;;;;;;5073872;28;20029;-77
2023/03/06 00:05:33;;;;;;;4.45;2.13;;;6.40;99.90;;;;;;5074728;28;20040;-76
2023/03/06 00:07:59;;;;;;;6.07;2.08;;;6.30;99.90;;;;;;5074718;28;20029;-84
2023/03/06 00:10:28;;;;;;;4.95;2.05;;;6.30;99.90;;;;;;5056646;28;20032;-78
2023/03/06 00:12:57;;;;;;;6.88;2.05;;;6.30;99.90;;;;;;5073957;28;20025;-77
2023/03/06 00:15:24;;;;;;;6.25;1.95;;;6.20;99.90;;;;;;5074256;28;20032;-77
2023/03/06 00:17:50;;;;;;;4.07;1.80;;;6.20;99.90;;;;;;5074193;28;20025;-77
2023/03/06 00:20:16;;;;;;;3.75;1.70;;;6.20;99.90;;;;;;5073157;28;20111;-78
2023/03/06 00:22:42;;;;;;;4.22;1.70;;;6.20;99.90;;;;;;5072780;28;20043;-77
2023/03/06 00:25:12;;;;;;;5.15;1.70;;;6.20;99.90;;;;;;5072642;28;20400;-77
2023/03/06 00:27:38;;;;;;;4.82;2.35;;;6.20;99.90;;;;;;5072918;28;20028;-77
2023/03/06 00:30:04;;;;;;;6.05;2.35;;;6.20;99.90;;;;;;5072329;28;20431;-77
2023/03/06 00:32:30;;;;;;;4.28;2.08;;;6.20;99.90;;;;;;5089074;28;20048;-76
2023/03/06 00:34:55;;;;;;;5.03;1.63;;;6.20;99.90;;;;;;5059161;28;20499;-76
2023/03/06 00:37:23;;;;;;;4.50;2.33;;;6.20;99.90;;;;;;5075929;28;20035;-77
2023/03/06 00:39:49;;;;;;;5.28;1.85;;;6.20;99.90;;;;;;5093756;28;20032;-76
2023/03/06 00:42:16;;;;;;;3.78;2.10;;;6.20;99.90;;;;;;5075498;28;20080;-80
2023/03/06 00:44:42;;;;;;;3.05;1.90;;;6.20;99.90;;;;;;5075618;28;20023;-81
2023/03/06 00:47:07;;;;;;;2.67;1.85;;;6.20;99.90;;;;;;5075818;28;20035;-80
2023/03/06 00:49:34;;;;;;;4.35;1.90;;;6.20;99.90;;;;;;5059238;28;20038;-80
2023/03/06 00:51:59;;;;;;;3.92;2.03;;;6.10;99.90;;;;;;5075663;28;20081;-80
2023/03/06 00:54:25;;;;;;;4.20;2.08;;;6.10;99.90;;;;;;5059177;28;20036;-80
2023/03/06 00:56:51;;;;;;;4.63;1.77;;;6.00;99.90;;;;;;5093683;28;20024;-80
2023/03/06 00:59:16;;;;;;;5.00;2.30;;;6.00;99.90;;;;;;5059246;28;20028;-80
2023/03/06 01:01:42;;;;;;;6.38;2.10;;;5.90;99.90;;;;;;5058829;28;20075;-80
2023/03/06 01:04:08;;;;;;;5.65;2.22;;;6.00;99.90;;;;;;5075061;28;20036;-80
2023/03/06 01:06:34;;;;;;;4.68;1.90;;;6.00;99.90;;;;;;5042101;28;20036;-80
2023/03/06 01:09:00;;;;;;;4.60;2.38;;;5.90;99.90;;;;;;5075305;28;20497;-78
2023/03/06 01:11:26;;;;;;;4.47;2.20;;;5.90;99.90;;;;;;5075039;28;20024;-79
2023/03/06 01:13:51;;;;;;;3.75;2.55;;;6.00;99.90;;;;;;5075194;28;20032;-81
2023/03/06 01:16:18;;;;;;;6.60;3.60;;;6.00;99.90;;;;;;5075396;28;20090;-80
2023/03/06 01:18:45;;;;;;;6.18;4.07;;;5.90;99.90;;;;;;5093463;28;20020;-79
2023/03/06 01:21:11;;;;;;;4.65;3.20;;;5.90;99.90;;;;;;5075233;28;20028;-81
2023/03/06 01:23:37;;;;;;;4.55;3.10;;;5.80;99.90;;;;;;5093614;28;20051;-80
2023/03/06 01:26:03;;;;;;;6.25;2.90;;;5.80;99.90;;;;;;5058479;28;20070;-80
2023/03/06 01:28:29;;;;;;;5.78;2.75;;;5.70;99.90;;;;;;5093262;28;20032;-80
2023/03/06 01:30:55;;;;;;;4.80;2.67;;;5.80;99.90;;;;;;5093043;28;20029;-80
2023/03/06 01:33:21;;;;;;;4.55;2.58;;;5.80;99.90;;;;;;5058505;28;20358;-81
2023/03/06 01:35:47;;;;;;;5.20;2.88;;;5.80;99.90;;;;;;5093179;28;20485;-80
2023/03/06 01:38:13;;;;;;;4.00;2.67;;;5.80;99.90;;;;;;5075637;28;20027;-80
2023/03/06 01:40:39;;;;;;;5.15;2.72;;;5.70;99.90;;;;;;5093149;28;20116;-79
2023/03/06 01:43:28;;;;;;;5.00;2.75;;;5.70;99.90;;;;;;5075576;28;20115;-80
2023/03/06 01:46:22;;;;;;;5.63;2.90;;;5.60;99.90;;;;;;5063951;28;20032;-80
2023/03/06 01:48:52;;;;;;;3.67;2.95;;;5.50;99.90;;;;;;5075475;28;20487;-80
2023/03/06 01:51:18;;;;;;;5.68;3.58;;;5.50;99.90;;;;;;5074763;28;20036;-79
2023/03/06 01:53:46;;;;;;;8.20;3.30;;;5.40;99.90;;;;;;5058165;28;20054;-80
2023/03/06 01:56:12;;;;;;;7.00;3.25;;;5.40;99.90;;;;;;5074756;28;20391;-80
2023/03/06 01:58:42;;;;;;;7.82;3.25;;;5.40;99.90;;;;;;5058613;28;20032;-79
2023/03/06 02:01:13;;;;;;;5.25;3.08;;;5.30;99.90;;;;;;5074684;28;20055;-80
2023/03/06 02:03:41;;;;;;;7.43;3.47;;;5.30;99.90;;;;;;5075305;28;20036;-80
2023/03/06 02:06:06;;;;;;;6.45;3.40;;;5.30;99.90;;;;;;5074737;28;20031;-80
2023/03/06 02:08:32;;;;;;;6.78;3.58;;;5.30;99.90;;;;;;5074673;28;20061;-80
2023/03/06 02:11:09;;;;;;;5.60;3.70;;;5.30;99.90;;;;;;5074703;28;20050;-80
2023/03/06 02:13:37;;;;;;;7.40;4.60;;;5.30;99.90;;;;;;5075192;28;20372;-79
2023/03/06 02:16:03;;;;;;;6.32;4.50;;;5.30;99.90;;;;;;5092713;28;20035;-79
2023/03/06 02:18:29;;;;;;;8.75;5.00;;;5.20;99.90;;;;;;5092762;28;20032;-79
2023/03/06 02:20:59;;;;;;;7.85;6.00;;;5.20;99.90;;;;;;5093089;28;20109;-79
2023/03/06 02:23:58;;;;;;;10.63;6.65;;;5.20;99.90;;;;;;5092947;28;20028;-79
2023/03/06 02:26:27;;;;;;;13.65;6.50;;;5.10;99.90;;;;;;5081545;28;20043;-79
2023/03/06 02:28:52;;;;;;;9.48;6.65;;;5.10;99.90;;;;;;5075019;28;20021;-80
2023/03/06 02:31:23;;;;;;;10.55;7.78;;;5.10;99.90;;;;;;5071407;28;20064;-79
2023/03/06 02:34:12;;;;;;;10.00;7.40;;;5.00;99.90;;;;;;5075110;28;20424;-79
2023/03/06 02:36:43;;;;;;;12.02;8.15;;;5.00;99.90;;;;;;5075757;28;20044;-79
2023/03/06 02:39:10;;;;;;;12.50;8.77;;;5.00;99.90;;;;;;5075382;28;20062;-80
2023/03/06 02:41:35;;;;;;;11.75;8.45;;;4.90;99.90;;;;;;5059039;28;20033;-80
2023/03/06 02:44:01;;;;;;;12.57;8.45;;;4.90;99.90;;;;;;5058580;28;20036;-80
2023/03/06 02:46:27;;;;;;;12.25;8.20;;;4.90;99.90;;;;;;5075895;28;20461;-79
2023/03/06 02:48:52;;;;;;;13.77;8.40;;;5.00;99.90;;;;;;5074539;28;20461;-80
2023/03/06 02:51:18;;;;;;;13.80;9.40;;;5.00;99.90;;;;;;5075812;28;20029;-79
2023/03/06 02:53:43;;;;;;;16.27;10.43;;;4.90;99.90;;;;;;5057716;28;20033;-80
2023/03/06 02:56:09;;;;;;;17.25;10.10;;;4.90;99.90;;;;;;5074444;28;20389;-80
2023/03/06 02:58:35;;;;;;;16.75;11.27;;;4.90;99.90;;;;;;5074670;28;20406;-80
2023/03/06 03:01:00;;;;;;;14.13;10.43;;;4.80;99.90;;;;;;5075518;28;20439;-80
2023/03/06 03:03:26;;;;;;;17.13;11.55;;;4.80;99.90;;;;;;5057473;28;20461;-80
2023/03/06 03:05:52;;;;;;;17.25;11.65;;;4.80;99.90;;;;;;5075552;28;20029;-80
2023/03/06 03:08:17;;;;;;;16.75;11.70;;;4.80;99.90;;;;;;5074398;28;20509;-79
2023/03/06 03:10:43;;;;;;;17.15;11.98;;;4.90;99.90;;;;;;5057815;28;20029;-79
2023/03/06 03:13:09;;;;;;;19.05;12.32;;;4.90;99.90;;;;;;5073974;28;20123;-79
2023/03/06 03:15:34;;;;;;;20.15;13.07;;;4.90;99.90;;;;;;5057259;28;20037;-79
2023/03/06 03:18:00;;;;;;;20.85;13.27;;;4.80;99.90;;;;;;5057234;28;20040;-79
2023/03/06 03:20:26;;;;;;;21.13;14.35;;;4.80;99.90;;;;;;5057648;28;20099;-79
2023/03/06 03:22:53;;;;;;;20.73;14.45;;;4.80;99.90;;;;;;5057686;28;20381;-80
2023/03/06 03:25:21;;;;;;;18.67;14.15;;;4.80;99.90;;;;;;5073519;28;20489;-80
2023/03/06 03:27:47;;;;;;;21.27;14.57;;;4.70;99.90;;;;;;5075226;28;20029;-79
2023/03/06 03:30:13;;;;;;;21.83;15.13;;;4.70;99.90;;;;;;5057299;28;20032;-79
2023/03/06 03:32:39;;;;;;;20.85;14.95;;;4.70;99.90;;;;;;5091231;28;20052;-79
2023/03/06 03:35:08;;;;;;;24.42;16.23;;;4.70;99.90;;;;;;5060127;28;20495;-79
2023/03/06 03:37:33;;;;;;;22.52;14.30;;;4.60;99.90;;;;;;5094984;28;20052;-80
2023/03/06 03:39:59;;;;;;;23.85;15.13;;;4.60;99.90;;;;;;5095009;28;20067;-79
2023/03/06 03:42:25;;;;;;;21.33;14.27;;;4.70;99.90;;;;;;5076422;28;20082;-79
2023/03/06 03:44:51;;;;;;;24.17;16.08;;;4.70;99.90;;;;;;5076332;28;20434;-80
2023/03/06 03:47:16;;;;;;;22.23;15.63;;;4.70;99.90;;;;;;5077318;28;20040;-80
2023/03/06 03:49:42;;;;;;;21.23;15.95;;;4.60;99.90;;;;;;5060504;28;20033;-80
2023/03/06 03:52:07;;;;;;;25.33;16.95;;;4.50;99.90;;;;;;5059954;28;20464;-80
2023/03/06 03:54:33;;;;;;;22.77;16.08;;;4.50;99.90;;;;;;5076624;28;20038;-80
2023/03/06 03:56:59;;;;;;;23.25;15.57;;;4.40;99.90;;;;;;5060022;28;20130;-80
2023/03/06 03:59:24;;;;;;;22.98;16.00;;;4.50;99.90;;;;;;5059959;28;20501;-79
2023/03/06 04:01:51;;;;;;;25.13;16.90;;;4.50;99.90;;;;;;5077446;28;20028;-79
2023/03/06 04:04:16;;;;;;;22.30;16.10;;;4.50;99.90;;;;;;5076743;28;20533;-80
2023/03/06 04:06:42;;;;;;;22.63;16.15;;;4.40;99.90;;;;;;5094781;28;20115;-80
2023/03/06 04:09:08;;;;;;;22.17;15.23;;;4.50;99.90;;;;;;5076672;28;20035;-80
2023/03/06 04:11:33;;;;;;;24.63;16.05;;;4.50;99.90;;;;;;5076294;28;20384;-80
2023/03/06 04:13:59;;;;;;;20.90;15.30;;;4.60;99.90;;;;;;5094462;28;20038;-81
2023/03/06 04:16:25;;;;;;;22.55;15.10;;;4.50;99.90;;;;;;5076187;28;20039;-80
2023/03/06 04:18:50;;;;;;;22.98;15.82;;;4.60;99.90;;;;;;5076260;28;20036;-81
2023/03/06 04:21:16;;;;;;;21.08;14.77;;;4.60;99.90;;;;;;5076223;28;20112;-80
2023/03/06 04:23:42;;;;;;;24.10;15.30;;;4.60;99.90;;;;;;5075992;28;20369;-80
2023/03/06 04:26:08;;;;;;;22.73;14.85;;;4.60;99.90;;;;;;5076238;28;20039;-80
2023/03/06 04:28:34;;;;;;;20.17;14.85;;;4.60;99.90;;;;;;5059838;28;20031;-80
2023/03/06 04:30:59;;;;;;;21.55;14.38;;;4.60;99.90;;;;;;5098551;28;20056;-80
2023/03/06 04:33:25;;;;;;;19.30;13.57;;;4.60;99.90;;;;;;5070029;28;20043;-80
2023/03/06 04:35:51;;;;;;;23.95;14.75;;;4.60;99.90;;;;;;5088412;28;20028;-80
2023/03/06 04:38:17;;;;;;;20.90;14.60;;;4.60;99.90;;;;;;5076896;28;20457;-80
2023/03/06 04:40:43;;;;;;;28.80;14.63;;;4.70;99.90;;;;;;5059567;28;20039;-80
2023/03/06 04:43:08;;;;;;;20.83;13.68;;;4.70;99.90;;;;;;5093984;28;20028;-80
2023/03/06 04:45:34;;;;;;;18.40;12.98;;;4.70;99.90;;;;;;5093443;28;20380;-79
2023/03/06 04:48:00;;;;;;;18.98;13.23;;;4.70;99.90;;;;;;5094045;28;20071;-80
2023/03/06 04:50:31;;;;;;;17.83;13.45;;;4.80;99.90;;;;;;5075540;28;20029;-80
2023/03/06 04:53:00;;;;;;;16.83;12.32;;;4.80;99.90;;;;;;5094051;28;20020;-80
2023/03/06 04:55:26;;;;;;;16.40;12.88;;;4.80;99.90;;;;;;5075641;28;20036;-80
2023/03/06 04:57:52;;;;;;;18.77;13.48;;;4.90;99.90;;;;;;5075383;28;20036;-80
2023/03/06 05:00:21;;;;;;;17.95;12.48;;;4.90;99.90;;;;;;5093591;28;20031;-80
2023/03/06 05:02:48;;;;;;;19.73;13.02;;;4.90;99.90;;;;;;5093846;28;20368;-80
2023/03/06 05:05:15;;;;;;;18.10;12.63;;;5.00;99.90;;;;;;5075359;28;20032;-80
2023/03/06 05:07:41;;;;;;;19.83;13.13;;;5.00;99.90;;;;;;5058972;28;20076;-80
2023/03/06 05:10:11;;;;;;;19.13;14.00;;;5.00;99.90;;;;;;5075324;28;20028;-80
2023/03/06 05:12:38;;;;;;;17.25;13.05;;;5.00;99.90;;;;;;5093304;28;20476;-80
2023/03/06 05:15:04;;;;;;;20.83;13.77;;;5.10;99.90;;;;;;5093159;28;20035;-80
2023/03/06 05:17:30;;;;;;;17.95;13.40;;;5.10;99.90;;;;;;5075059;28;20029;-80
2023/03/06 05:19:55;;;;;;;18.48;12.82;;;5.10;99.90;;;;;;5075169;28;20025;-79
2023/03/06 05:22:21;;;;;;;21.20;12.82;;;5.10;99.90;;;;;;5075167;28;20089;-80
2023/03/06 05:24:47;;;;;;;18.85;13.77;;;5.10;99.90;;;;;;5058355;28;20361;-81
2023/03/06 05:27:12;;;;;;;21.50;12.82;;;5.10;99.90;;;;;;5074741;28;20032;-80
2023/03/06 05:29:38;;;;;;;22.70;13.20;;;5.10;99.90;;;;;;5075024;28;20035;-80
2023/03/06 05:32:04;;;;;;;20.90;12.90;;;5.10;99.90;;;;;;5092788;28;20071;-80
2023/03/06 05:34:29;;;;;;;19.23;13.13;;;5.10;99.90;;;;;;5093183;28;20067;-80
2023/03/06 05:36:55;;;;;;;19.45;13.80;;;5.10;99.90;;;;;;5075342;28;20040;-80
2023/03/06 05:39:21;;;;;;;19.23;13.80;;;5.10;99.90;;;;;;5093074;28;20104;-80
2023/03/06 05:41:46;;;;;;;19.05;13.18;;;5.10;99.90;;;;;;5093362;28;20039;-80
2023/03/06 05:44:12;;;;;;;21.63;13.43;;;5.10;99.90;;;;;;5058074;28;20128;-80
2023/03/06 05:46:38;;;;;;;20.38;13.45;;;5.10;99.90;;;;;;5074940;28;20036;-80
2023/03/06 05:49:04;;;;;;;19.92;12.90;;;5.10;99.90;;;;;;5058226;28;20105;-80
2023/03/06 05:51:29;;;;;;;16.77;11.38;;;5.10;99.90;;;;;;5074686;28;20020;-80
2023/03/06 05:53:55;;;;;;;21.52;13.88;;;5.10;99.90;;;;;;5057960;28;20032;-80
2023/03/06 05:56:21;;;;;;;18.33;12.32;;;5.10;99.90;;;;;;5057987;28;20032;-80
2023/03/06 05:58:47;;;;;;;18.20;11.70;;;5.00;99.90;;;;;;5074865;28;20380;-80
2023/03/06 06:01:16;;;;;;;21.60;12.95;;;5.00;99.90;;;;;;5074553;28;20033;-80
2023/03/06 06:03:42;;;;;;;19.83;11.55;;;5.00;99.90;;;;;;5074632;28;20039;-80
2023/03/06 06:06:10;;;;;;;18.50;12.25;;;5.00;99.90;;;;;;5041644;28;20032;-80
2023/03/06 06:08:36;;;;;;;20.35;12.05;;;5.00;99.90;;;;;;5079151;28;20032;-80
2023/03/06 06:11:04;;;;;;;19.15;12.65;;;5.00;99.90;;;;;;5078527;28;20108;-79
2023/03/06 06:13:29;;;;;;;15.68;10.85;;;4.90;99.90;;;;;;5078419;28;20423;-81
2023/03/06 06:15:55;;;;;;;13.75;9.27;;;4.90;99.90;;;;;;5079617;28;20100;-85
2023/03/06 06:18:21;;;;;;;14.85;8.98;;;4.90;99.90;;;;;;5078576;28;20036;-82
2023/03/06 06:20:46;;;;;;;13.98;8.90;;;5.00;99.90;;;;;;5064105;28;20115;-83
2023/03/06 06:23:12;;;;;;;14.80;9.13;;;5.00;99.90;;;;;;5047652;28;20457;-83
2023/03/06 06:25:38;;;;;;;14.60;8.73;;;5.10;99.90;;;;;;5100031;28;20028;-83
2023/03/06 06:28:04;;;;;;;11.88;7.85;;;5.10;99.90;;;;;;5079002;28;20384;-83
2023/03/06 06:30:31;;;;;;;10.45;7.68;;;5.10;99.90;;;;;;5078788;28;20143;-82
2023/03/06 06:32:57;;;;;;;13.13;7.45;;;5.10;99.90;;;;;;5096571;28;20040;-82
2023/03/06 06:35:23;;;;;;;11.00;7.55;;;5.10;99.90;;;;;;5062772;28;20040;-83
2023/03/06 06:37:48;;;;;;;11.38;7.28;;;5.20;99.90;;;;;;5079347;28;20032;-82
2023/03/06 06:40:14;;;;;;;9.98;7.05;;;5.10;99.90;;;;;;5097298;28;20024;-82
2023/03/06 06:42:40;;;;;;;9.60;7.05;;;5.20;99.90;;;;;;5078619;28;20123;-83
2023/03/06 06:45:08;;;;;;;13.40;7.10;;;5.30;99.90;;;;;;5078630;28;20039;-79
2023/03/06 06:47:37;;;;;;;10.15;6.70;;;5.30;99.90;;;;;;5095938;28;20016;-82
2023/03/06 06:50:03;;;;;;;10.02;6.68;;;5.30;99.90;;;;;;5078443;28;20318;-78
2023/03/06 06:52:28;;;;;;;11.45;7.15;;;5.30;99.90;;;;;;5095775;28;20051;-76
2023/03/06 06:54:54;;;;;;;8.82;6.20;;;5.30;99.90;;;;;;5060879;28;20036;-77
2023/03/06 06:57:20;;;;;;;10.60;5.70;;;5.30;99.90;;;;;;5077901;28;20032;-76
2023/03/06 06:59:46;;;;;;;8.32;6.07;;;5.30;99.90;;;;;;5095722;28;20020;-76
2023/03/06 07:02:13;;;;;;;10.10;5.60;;;5.40;99.90;;;;;;5077623;28;20422;-76
2023/03/06 07:04:39;;;;;;;7.50;5.30;;;5.40;99.90;;;;;;5095612;28;20023;-76
2023/03/06 07:07:05;;;;;;;9.25;5.88;;;5.40;99.90;;;;;;5060613;28;20048;-75
2023/03/06 07:09:31;;;;;;;10.02;5.55;;;5.40;99.90;;;;;;5060555;28;20055;-76
2023/03/06 07:11:59;;;;;;;7.88;5.20;;;5.50;99.90;;;;;;5060597;28;20035;-76
2023/03/06 07:14:24;;;;;;;8.52;5.25;;;5.50;99.90;;;;;;5077444;28;20036;-77
2023/03/06 07:16:53;;;;;;;8.35;4.47;;;5.50;99.90;;;;;;5095459;28;20046;-78
2023/03/06 07:19:19;;;;;;;9.70;4.75;;;5.50;99.90;;;;;;5077804;28;20028;-77
2023/03/06 07:21:44;;;;;;;9.45;5.45;;;5.50;99.90;;;;;;5095436;28;20039;-78
2023/03/06 07:24:10;;;;;;;6.90;4.78;;;5.50;99.90;;;;;;5077215;28;20056;-77
2023/03/06 07:26:36;;;;;;;6.47;4.82;;;5.60;99.90;;;;;;5044452;28;20111;-77
2023/03/06 07:29:03;;;;;;;6.50;4.55;;;5.60;99.90;;;;;;5077337;28;20051;-77
2023/03/06 07:31:29;;;;;;;8.48;5.00;;;5.70;99.90;;;;;;5073496;28;20083;-78
2023/03/06 07:33:55;;;;;;;8.55;4.70;;;5.80;99.90;;;;;;5074840;28;20063;-77
2023/03/06 07:36:22;;;;;;;6.50;4.18;;;5.90;99.90;;;;;;5057256;28;20032;-77
2023/03/06 07:38:48;;;;;;;5.32;4.35;;;5.90;99.90;;;;;;5073447;28;20054;-77
2023/03/06 07:41:15;;;;;;;7.28;4.13;;;5.90;99.90;;;;;;5056737;28;20064;-77
2023/03/06 07:43:41;;;;;;;6.97;4.43;;;6.00;99.90;;;;;;5073329;28;20052;-77
2023/03/06 07:46:10;;;;;;;5.78;4.32;;;6.00;99.90;;;;;;5058389;28;20029;-85
2023/03/06 07:48:37;;;;;;;6.13;3.90;;;5.90;99.90;;;;;;5058180;28;20487;-83
2023/03/06 07:51:05;;;;;;;6.97;4.10;;;5.90;99.90;;;;;;5059060;28;20425;-84
2023/03/06 07:53:31;;;;;;;7.40;4.18;;;6.00;99.90;;;;;;5075132;28;20115;-79
2023/03/06 07:55:57;;;;;;;5.38;3.63;;;6.00;99.90;;;;;;5072680;28;20060;-78
2023/03/06 07:58:23;;;;;;;5.05;3.88;;;6.10;99.90;;;;;;5074015;28;20113;-77
2023/03/06 08:00:49;;;;;;;5.13;3.38;;;6.10;99.90;;;;;;5074442;28;20039;-75
2023/03/06 08:03:15;;;;;;;5.18;3.42;;;6.20;99.90;;;;;;5074133;28;20025;-75
2023/03/06 08:05:41;;;;;;;6.72;3.47;;;6.10;99.90;;;;;;5072786;28;20484;-76
2023/03/06 08:08:07;;;;;;;3.80;2.67;;;6.10;99.90;;;;;;5072854;28;20103;-76
2023/03/06 08:10:33;;;;;;;4.53;2.90;;;6.20;99.90;;;;;;5073902;28;20028;-76
2023/03/06 08:12:58;;;;;;;4.47;2.40;;;6.20;99.90;;;;;;5074212;28;20098;-76
2023/03/06 08:15:24;;;;;;;4.05;1.85;;;6.30;99.90;;;;;;5074564;28;20357;-79
2023/03/06 08:17:51;;;;;;;3.50;1.92;;;6.40;99.90;;;;;;5075698;28;20032;-78
2023/03/06 08:20:17;;;;;;;3.80;2.10;;;6.50;99.90;;;;;;5076265;28;20020;-80
2023/03/06 08:22:43;;;;;;;2.05;1.60;;;6.70;99.90;;;;;;5074104;28;20502;-76
2023/03/06 08:25:10;;;;;;;1.80;1.05;;;6.70;99.90;;;;;;5074375;28;20035;-76
2023/03/06 08:27:36;;;;;;;2.03;1.25;;;6.80;99.90;;;;;;5073962;28;20020;-75
2023/03/06 08:30:02;;;;;;;2.00;1.00;;;6.80;99.90;;;;;;5073503;28;20441;-76
2023/03/06 08:32:28;;;;;;;1.00;0.60;;;6.90;99.90;;;;;;5072327;28;20080;-76
2023/03/06 08:34:53;;;;;;;2.20;0.60;;;7.00;99.90;;;;;;5073473;28;20461;-77
2023/03/06 08:37:19;;;;;;;2.55;0.57;;;6.90;99.90;;;;;;5074061;28;20029;-81
2023/03/06 08:39:45;;;;;;;1.25;0.60;;;6.90;99.90;;;;;;5089636;28;20080;-82
2023/03/06 08:42:10;;;;;;;0.95;0.30;;;6.90;99.90;;;;;;5044035;28;20021;-80
2023/03/06 08:44:36;;;;;;;1.83;0.45;;;7.00;99.90;;;;;;5075081;28;20415;-80
2023/03/06 08:47:02;;;;;;;1.83;0.40;;;7.10;99.90;;;;;;5072424;28;20028;-80
2023/03/06 08:49:28;;;;;;;2.28;0.40;;;7.20;99.90;;;;;;5061579;28;20032;-82
2023/03/06 08:51:54;;;;;;;1.17;0.40;;;7.30;99.90;;;;;;5060222;28;20114;-83
2023/03/06 08:54:20;;;;;;;1.40;0.50;;;7.30;99.90;;;;;;5076894;28;20381;-84
2023/03/06 08:56:45;;;;;;;2.20;0.35;;;7.40;99.90;;;;;;5081662;28;20032;-85
2023/03/06 08:59:12;;;;;;;2.38;0.45;;;7.40;99.90;;;;;;5058809;28;20123;-84
2023/03/06 09:01:38;;;;;;;1.83;0.40;;;7.40;99.90;;;;;;5074094;28;20029;-84
2023/03/06 09:04:09;;;;;;;0.93;0.28;;;7.40;99.90;;;;;;5072506;28;20032;-82
2023/03/06 09:06:38;;;;;;;1.25;0.20;;;7.60;99.90;;;;;;5072377;28;20025;-85
2023/03/06 09:09:04;;;;;;;1.15;0.30;;;7.80;99.90;;;;;;5073812;28;20078;-81
2023/03/06 09:11:30;;;;;;;1.27;0.30;;;7.80;99.90;;;;;;5057054;28;20032;-82
2023/03/06 09:13:57;;;;;;;0.55;0.10;;;7.90;99.30;;;;;;5072916;28;20098;-84
2023/03/06 09:16:23;;;;;;;0.40;0.13;;;8.00;99.90;;;;;;5073567;28;20028;-84
2023/03/06 09:18:51;;;;;;;0.85;0.20;;;8.00;98.50;;;;;;5074117;28;20036;-83
2023/03/06 09:21:18;;;;;;;0.88;0.20;;;8.00;97.90;;;;;;5073103;28;20025;-80
2023/03/06 09:23:44;;;;;;;0.85;0.20;;;8.10;97.70;;;;;;5071718;28;20024;-81
2023/03/06 09:26:11;;;;;;;0.73;0.20;;;8.20;97.50;;;;;;5071900;28;20510;-80
2023/03/06 09:28:37;;;;;;;1.85;0.20;;;8.20;97.30;;;;;;5073070;28;20025;-80
2023/03/06 09:31:09;;;;;;;5.75;0.50;;;8.20;95.80;;;;;;5072149;28;20044;-80
2023/03/06 09:33:34;;;;;;;4.63;0.38;;;8.00;95.90;;;;;;5093254;28;20452;-80
2023/03/06 09:36:01;;;;;;;3.55;1.02;;;8.10;96.80;;;;;;5059393;28;20037;-80
2023/03/06 09:38:27;;;;;;;18.77;3.47;;;8.30;96.30;;;;;;5059092;28;20536;-79
2023/03/06 09:40:56;;;;;;;7.90;0.75;;;8.50;96.30;;;;;;5075557;28;20526;-74
2023/03/06 09:43:34;;;;;;;14.52;1.48;;;8.80;95.50;;;;;;5097209;28;20024;-75
2023/03/06 09:46:05;;;;;;;16.15;2.97;;;8.70;93.60;;;;;;5079618;28;20414;-75
2023/03/06 09:48:46;;;;;;;2.47;0.20;;;8.70;93.50;;;;;;5079252;28;20032;-74
2023/03/06 09:51:18;;;;;;;5.60;0.60;;;8.80;91.90;;;;;;5097012;28;20024;-74
2023/03/06 09:54:05;;;;;;;4.15;0.90;;;8.90;92.10;;;;;;5096592;28;20441;-73
2023/03/06 09:56:33;;;;;;;1.10;0.00;;;9.10;92.40;;;;;;5078576;28;20038;-76
2023/03/06 09:59:10;;;;;;;2.28;0.20;;;9.10;88.50;;;;;;5062390;28;20040;-76
2023/03/06 10:01:41;;;;;;;2.60;0.15;;;9.00;90.10;;;;;;5097077;28;20020;-75
2023/03/06 10:04:15;;;;;;;1.38;0.28;;;9.00;91.00;;;;;;5096752;28;20088;-75
2023/03/06 10:06:49;;;;;;;2.20;0.20;;;9.00;90.30;;;;;;5098528;28;20030;-76
2023/03/06 10:10:06;;;;;;;1.13;0.10;;;8.90;90.80;;;;;;5082272;28;20028;-76
2023/03/06 10:12:39;;;;;;;0.73;0.00;;;8.90;89.80;;;;;;5042830;28;20036;-76
2023/03/06 10:15:20;;;;;;;1.60;0.10;;;8.90;87.00;;;;;;5098312;28;20024;-76
2023/03/06 10:17:46;;;;;;;2.60;0.10;;;8.90;86.80;;;;;;5097055;28;20032;-76
2023/03/06 10:20:17;;;;;;;2.08;0.15;;;8.90;85.50;;;;;;5078611;28;20138;-75
2023/03/06 10:22:49;;;;;;;1.00;0.10;;;9.00;86.20;;;;;;5096393;28;20095;-75
2023/03/06 10:25:40;;;;;;;2.20;0.10;;;8.90;86.30;;;;;;5078589;28;20336;-77
2023/03/06 10:28:16;;;;;;;4.15;0.40;;;9.00;87.10;;;;;;5096740;28;20480;-75
2023/03/06 10:31:00;;;;;;;1.17;0.10;;;9.00;86.00;;;;;;5096614;28;20032;-74
2023/03/06 10:33:38;;;;;;;1.92;0.20;;;9.00;84.20;;;;;;5078812;28;20097;-76
2023/03/06 10:36:04;;;;;;;3.00;0.15;;;9.10;83.60;;;;;;5078401;28;20120;-76
2023/03/06 10:38:29;;;;;;;2.17;0.10;;;9.30;83.60;;;;;;5061301;28;20126;-76
2023/03/06 10:41:18;;;;;;;0.90;0.10;;;9.50;84.10;;;;;;5077563;28;20098;-75
2023/03/06 10:44:05;;;;;;;1.83;0.20;;;9.70;83.60;;;;;;5096008;28;20028;-77
2023/03/06 10:46:43;;;;;;;2.45;0.20;;;9.90;82.40;;;;;;5063520;28;20043;-76
2023/03/06 10:49:29;;;;;;;3.78;0.10;;;10.00;79.00;;;;;;5095548;28;20032;-74
2023/03/06 10:52:12;;;;;;;4.10;0.40;;;9.80;77.30;;;;;;5095569;28;20119;-77
2023/03/06 10:54:38;;;;;;;;;;;9.80;78.80;;;;;;5078260;28;20385;-79
2023/03/06 10:57:29;;;;;;;0.65;0.10;;;9.90;78.90;;;;;;5095395;28;19919;-76
2023/03/06 11:00:03;;;;;;;2.83;0.40;;;10.10;79.00;;;;;;5084086;28;20370;-82
2023/03/06 11:02:31;;;;;;;0.50;0.10;;;10.00;78.00;;;;;;5107326;28;20027;-82
2023/03/06 11:04:59;;;;;;;2.08;0.28;;;10.00;76.60;;;;;;5095187;28;20024;-81
2023/03/06 11:07:32;;;;;;;1.55;0.10;;;9.80;76.60;;;;;;5103834;28;20441;-82
2023/03/06 11:10:15;;;;;;;0.65;0.10;;;9.80;77.30;;;;;;5085367;28;20131;-82
2023/03/06 11:12:42;;;;;;;;;;;9.90;74.30;;;;;;5085929;28;20110;-83
2023/03/06 11:15:13;;;;;;;0.88;0.10;;;9.70;73.40;;;;;;5079439;28;19908;-82
2023/03/06 11:17:57;;;;;;;0.88;0.10;;;9.80;74.90;;;;;;5100904;28;20028;-81
2023/03/06 11:20:43;;;;;;;0.13;0.00;;;10.00;74.50;;;;;;5078396;28;20027;-77
2023/03/06 11:23:26;;;;;;;1.17;0.10;;;10.10;74.10;;;;;;5077173;28;20024;-80
2023/03/06 11:26:23;;;;;;;0.20;0.00;;;10.20;74.10;;;;;;5077478;28;20138;-80
2023/03/06 11:29:14;;;;;;;2.95;0.13;;;10.40;73.20;;;;;;5094805;28;20043;-80
2023/03/06 11:32:13;;;;;;;0.98;0.20;;;10.40;73.20;;;;;;5073710;28;20049;-79
2023/03/06 11:34:47;;;;;;;0.55;0.10;;;10.50;73.70;;;;;;5074292;28;20033;-81
2023/03/06 11:37:28;;;;;;;0.75;0.20;;;10.60;72.90;;;;;;5074913;28;20028;-80
2023/03/06 11:40:04;;;;;;;0.17;0.00;;;10.40;70.40;;;;;;5073731;28;20352;-78
2023/03/06 11:42:40;;;;;;;0.45;0.10;;;10.40;70.80;;;;;;5073578;28;20047;-80
2023/03/06 11:45:33;;;;;;;0.20;0.00;;;10.50;70.90;;;;;;5074721;28;20029;-79
2023/03/06 11:48:14;;;;;;;0.32;0.00;;;10.60;69.60;;;;;;5076427;28;20029;-84
2023/03/06 11:50:48;;;;;;;0.30;0.00;;;10.70;68.40;;;;;;5079112;28;20469;-85
2023/03/06 11:53:17;;;;;;;0.85;0.10;;;10.70;67.80;;;;;;5074517;28;20039;-85
2023/03/06 11:56:02;;;;;;;0.57;0.10;;;10.70;68.90;;;;;;5074549;28;20381;-85
2023/03/06 11:58:46;;;;;;;1.55;0.00;;;10.80;67.90;;;;;;5075693;28;20032;-85
2023/03/06 12:01:45;;;;;;;0.50;0.10;;;10.80;67.20;;;;;;5083030;28;20044;-85
2023/03/06 12:04:29;;;;;;;0.80;0.00;;;10.90;67.60;;;;;;5077330;28;20029;-84
2023/03/06 12:07:07;;;;;;;0.88;0.10;;;10.90;67.90;;;;;;5081295;28;20021;-84
2023/03/06 12:09:43;;;;;;;1.02;0.00;;;10.90;66.80;;;;;;5077561;28;20094;-84
2023/03/06 12:12:32;;;;;;;2.75;0.10;;;10.90;66.80;;;;;;5084572;28;20076;-82
2023/03/06 12:15:14;;;;;;;0.52;0.00;;;10.80;65.50;;;;;;5084490;28;20039;-83
2023/03/06 12:17:51;;;;;;;0.30;0.00;;;10.70;65.40;;;;;;5074252;28;20029;-83
2023/03/06 12:20:38;;;;;;;0.30;0.00;;;10.70;65.60;;;;;;5075829;28;20036;-84
2023/03/06 12:23:15;;;;;;;0.57;0.00;;;10.70;65.60;;;;;;5074135;28;20025;-85
2023/03/06 12:26:03;;;;;;;2.13;0.17;;;10.80;66.80;;;;;;5074889;28;20029;-85
2023/03/06 12:28:50;;;;;;;1.00;0.20;;;11.00;67.10;;;;;;5081652;28;20020;-85
2023/03/06 12:31:35;;;;;;;1.75;0.10;;;10.90;66.30;;;;;;5079090;28;20052;-86
2023/03/06 12:34:14;;;;;;;0.40;0.00;;;11.00;67.00;;;;;;5077552;28;20024;-85
2023/03/06 12:36:58;;;;;;;1.80;0.10;;;11.00;65.90;;;;;;5078682;28;20036;-85
2023/03/06 12:39:45;;;;;;;0.43;0.10;;;10.90;65.80;;;;;;5076976;28;20038;-85
2023/03/06 12:42:17;;;;;;;0.28;0.10;;;10.90;66.30;;;;;;5079919;28;20028;-86
2023/03/06 12:44:54;;;;;;;0.85;0.10;;;10.80;66.70;;;;;;5077441;28;20039;-88
2023/03/06 12:47:25;;;;;;;0.15;0.00;;;10.70;66.40;;;;;;5077164;28;20520;-89
2023/03/06 12:50:02;;;;;;;1.58;0.10;;;10.70;67.80;;;;;;5077124;28;20461;-87
2023/03/06 12:52:30;;;;;;;0.77;0.10;;;10.60;67.70;;;;;;5076515;28;20024;-85
2023/03/06 12:55:03;;;;;;;1.65;0.10;;;10.60;68.20;;;;;;5094958;28;20093;-81
2023/03/06 12:57:28;;;;;;;0.45;0.10;;;10.60;69.00;;;;;;5095428;28;20028;-82
2023/03/06 12:59:54;;;;;;;1.10;0.20;;;10.60;69.00;;;;;;5059895;28;20177;-84
2023/03/06 13:02:54;;;;;;;2.05;0.10;;;10.60;69.40;;;;;;5060587;28;20372;-82